Roy, New Mexico
Current Conditions -  °F | °C
As of 9:53 AM on Thursday 23 Oct 2014 (Local Time) from KLVS Reporting Station
Clear Clear  
Wind Chill: 59°   Ceiling: Unl
Heat Index: 59°   Visibility: 10mi
Dew Point: 34°   Wind: 8mph
Humidity: 39%   Direction: 10°N
Pressure: 30.31"   Gusts: NA
Location:  35.94°N, 104.2°W
Report Text: KLVS 231553Z AUTO 01007KT 10SM CLR 15/01 A3031 RMK AO2 SLP186 T01500011
Loading
Personal Weather Stations






























Interactive Weather Map
Tropical Storm Tracking
New forecast layout! Learn more

10-Day Weather Forecast

Advertisements
Track Severe Weather on mobile